Latest Coastal Weather Observations for Horn Island

IDQ60701

Issued at 9:32 am EST Wednesday 16 October 2019 (issued every 10 minutes, with the page automatically refreshed every 10 minutes)

About coastal observations | Map of coastal stations | Coastal observations for QLD | Marine services | Other Formats
Station Details ID: 027058 Name: HORN ISLAND Lat: -10.58 Lon: 142.29 Height: 4.0 m
Data from the previous 72 hours. | See also: Recent months at Horn Island
Date/Time
EST
Wind Sea
Height
m
Swell Vis
km
Cloud Weather Temp
°C
Press
hPa
Rain since
9am
mm
Dir  Spd
kts
Gust
kts
Height
m
Period
s
Dir
16/09:30am ESE 13 19 - - - - 10 Partly cloudy - 27.9 1013.9 0.0
16/09:00am E 12 15 - - - - 10 Partly cloudy - 27.2 1014.1 0.0
16/08:30am E 13 18 - - - - 10 Partly cloudy - 26.1 1013.9 0.0
16/08:00am E 13 16 - - - - 10 Partly cloudy - 26.2 1013.6 0.0
16/07:30am E 10 17 - - - - 10 Partly cloudy - 25.8 1013.2 0.0
16/07:00am E 9 14 - - - - 10 - - 25.2 1012.9 0.0
16/06:30am ESE 9 12 - - - - 10 Partly cloudy - 24.5 1012.7 0.0
16/06:00am E 9 13 - - - - 10 Mostly clear - 24.2 1012.2 0.0
16/05:30am E 11 14 - - - - 10 Partly cloudy - 24.5 1012.1 0.0
16/05:00am E 10 14 - - - - 10 Partly cloudy - 24.5 1011.8 0.0
16/04:30am E 10 13 - - - - 10 Partly cloudy - 24.7 1011.5 0.0
16/04:00am E 9 13 - - - - 10 Partly cloudy - 24.5 1011.5 0.0
16/03:30am E 9 13 - - - - 10 Partly cloudy - 24.7 1011.5 0.0
16/03:00am E 10 13 - - - - 10 Mostly cloudy - 24.6 1011.5 0.0
16/02:30am E 10 14 - - - - 10 Partly cloudy - 24.7 1011.6 0.0
16/02:00am E 10 15 - - - - 10 Partly cloudy - 24.6 1011.7 0.0
16/01:30am E 9 12 - - - - 10 Partly cloudy - 24.7 1012.1 0.0
16/01:00am E 11 15 - - - - 10 Partly cloudy - 24.5 1012.4 0.0
16/12:30am E 10 14 - - - - 10 - - 24.6 1012.7 0.0
16/12:00am E 10 14 - - - - 10 Partly cloudy - 24.8 1013.1 0.0
 
Date/Time
EST
Wind Sea
Height
m
Swell Vis
km
Cloud Weather Temp
°C
Press
hPa
Rain since
9am
mm
Dir  Spd
kts
Gust
kts
Height
m
Period
s
Dir
15/11:30pm E 11 15 - - - - 10 Partly cloudy - 24.9 1013.0 0.0
15/11:00pm E 11 16 - - - - 10 Partly cloudy - 24.9 1013.1 0.0
15/10:30pm ESE 11 15 - - - - 10 Partly cloudy - 25.0 1013.1 0.0
15/10:00pm ESE 11 15 - - - - 10 Partly cloudy - 25.0 1013.1 0.0
15/09:30pm ESE 10 13 - - - - 10 Partly cloudy - 25.1 1013.0 0.0
15/09:00pm ESE 10 14 - - - - 10 Partly cloudy - 25.1 1012.8 0.0
15/08:30pm ESE 11 14 - - - - 10 Partly cloudy - 25.0 1012.4 0.0
15/08:00pm ESE 11 15 - - - - 10 - - 25.1 1012.1 0.0
15/07:30pm ESE 11 15 - - - - 10 - - 25.1 1011.8 0.0
15/07:00pm ESE 11 15 - - - - 10 - - 25.3 1011.5 0.0
15/06:30pm ESE 11 15 - - - - 10 - - 25.7 1011.2 0.0
15/06:00pm ESE 13 17 - - - - 10 - - 26.1 1011.1 0.0
15/05:30pm ESE 14 18 - - - - 10 - - 26.8 1010.9 0.0
15/05:00pm ESE 15 19 - - - - 10 - - 27.1 1010.8 0.0
15/04:30pm ESE 16 21 - - - - 10 - - 27.8 1010.7 0.0
15/04:00pm E 16 22 - - - - 10 - - 28.1 1010.8 0.0
15/03:30pm E 16 22 - - - - 10 - - 28.6 1011.0 0.0
15/03:00pm E 16 21 - - - - 10 - - 28.3 1011.3 0.0
15/02:30pm E 17 22 - - - - 10 - - 28.3 1011.6 0.0
15/02:00pm E 17 22 - - - - 10 - - 28.1 1011.8 0.0
15/01:30pm E 18 24 - - - - 10 - - 28.6 1012.2 0.0
15/01:00pm E 19 25 - - - - 10 - - 28.7 1012.5 0.0
15/12:30pm ESE 19 25 - - - - 10 - - 29.2 1013.0 0.0
15/12:00pm ESE 18 24 - - - - 10 - - 28.5 1013.5 0.0
15/11:30am E 19 25 - - - - 10 - - 28.4 1014.0 0.0
15/11:00am E 17 24 - - - - 10 - - 28.4 1014.3 0.0
15/10:30am ESE 18 23 - - - - 10 - - 28.1 1014.5 0.0
15/10:00am ESE 17 22 - - - - 10 Partly cloudy - 27.7 1014.4 0.0
15/09:30am ESE 16 22 - - - - 10 Partly cloudy - 28.1 1014.4 0.0
15/09:00am ESE 14 18 - - - - 10 Mostly cloudy - 27.2 1014.5 0.0
15/08:30am ESE 14 18 - - - - 10 Partly cloudy - 26.6 1014.4 0.0
15/08:00am ESE 14 18 - - - - 10 Partly cloudy - 26.5 1014.0 0.0
15/07:30am ESE 12 16 - - - - 10 Partly cloudy - 26.2 1013.6 0.0
15/07:00am ESE 10 14 - - - - 10 Partly cloudy - 25.4 1013.4 0.0
15/06:30am ESE 9 14 - - - - 10 Partly cloudy - 24.9 1013.2 0.0
15/06:00am ESE 10 14 - - - - 10 Cloudy - 24.7 1013.1 0.0
15/05:30am ESE 11 14 - - - - 10 Partly cloudy - 24.6 1013.0 0.0
15/05:00am ESE 10 15 - - - - 10 Partly cloudy - 24.6 1012.9 0.0
15/04:30am ESE 10 16 - - - - 10 Partly cloudy - 24.8 1012.7 0.0
15/04:00am ESE 13 19 - - - - 10 Partly cloudy - 25.0 1012.6 0.0
15/03:30am ESE 11 16 - - - - 10 Partly cloudy - 24.9 1012.7 0.0
15/03:00am ESE 13 17 - - - - 10 Mostly cloudy - 25.1 1012.7 0.0
15/02:30am ESE 11 15 - - - - 10 Partly cloudy - 25.1 1012.9 0.0
15/02:00am ESE 12 17 - - - - 10 Partly cloudy - 25.0 1013.2 0.0
15/01:30am ESE 12 17 - - - - 10 Partly cloudy - 24.9 1013.4 0.0
15/01:00am ESE 15 20 - - - - 10 Partly cloudy - 25.0 1013.5 0.0
15/12:30am ESE 14 21 - - - - 10 Partly cloudy - 25.1 1013.7 0.0
15/12:00am ESE 15 20 - - - - 10 Mostly clear - 25.2 1014.0 0.0
 
Date/Time
EST
Wind Sea
Height
m
Swell Vis
km
Cloud Weather Temp
°C
Press
hPa
Rain since
9am
mm
Dir  Spd
kts
Gust
kts
Height
m
Period
s
Dir
14/11:30pm ESE 13 20 - - - - 10 Partly cloudy - 25.3 1014.1 0.0
14/11:00pm ESE 14 20 - - - - 10 - - 25.3 1014.3 0.0
14/10:30pm ESE 15 21 - - - - 10 - - 25.3 1014.4 0.0
14/10:00pm ESE 14 19 - - - - 10 Partly cloudy - 25.3 1014.4 0.0
14/09:30pm ESE 14 18 - - - - 10 Partly cloudy - 25.4 1014.3 0.0
14/09:00pm ESE 15 21 - - - - 10 Mostly clear - 25.4 1014.0 0.0
14/08:30pm ESE 15 20 - - - - 10 Partly cloudy - 25.5 1013.8 0.0
14/08:00pm ESE 13 20 - - - - 10 Partly cloudy - 25.4 1013.4 0.0
14/07:30pm ESE 14 20 - - - - 10 Partly cloudy - 25.4 1013.1 0.0
14/07:00pm ESE 14 19 - - - - 10 Partly cloudy - 25.6 1012.6 0.0
14/06:30pm ESE 15 22 - - - - 10 Partly cloudy - 25.7 1012.3 0.0
14/06:00pm ESE 16 22 - - - - 10 Mostly clear - 26.2 1012.1 0.0
14/05:30pm ESE 16 21 - - - - 10 Partly cloudy - 27.0 1011.7 0.0
14/05:00pm ESE 16 22 - - - - 10 - - 27.5 1011.4 0.0
14/04:30pm ESE 16 23 - - - - 10 - - 28.4 1011.5 0.0
14/04:00pm E 18 24 - - - - 10 - - 28.0 1011.6 0.0
14/03:30pm E 18 24 - - - - 10 - - 28.8 1011.9 0.0
14/03:00pm E 18 23 - - - - 10 - - 28.6 1012.1 0.0
14/02:30pm E 17 23 - - - - 10 - - 29.4 1012.3 0.0
14/02:00pm ESE 19 26 - - - - 10 - - 28.8 1012.3 0.0
14/01:30pm E 19 25 - - - - 10 - - 29.0 1012.8 0.0
14/01:00pm ESE 20 24 - - - - 10 - - 29.0 1013.1 0.0
14/12:30pm E 19 25 - - - - 10 - - 28.2 1013.4 0.0
14/12:00pm ESE 18 24 - - - - 10 Mostly clear - 29.5 1014.0 0.0
14/11:30am ESE 19 24 - - - - 10 - - 28.8 1014.2 0.0
14/11:00am ESE 17 22 - - - - 10 Partly cloudy - 29.1 1014.6 0.0
14/10:30am ESE 15 20 - - - - 10 Partly cloudy - 27.0 1014.8 0.0
14/10:00am ESE 19 25 - - - - 10 - - 27.3 1014.8 0.0
14/09:30am ESE 18 23 - - - - 10 Partly cloudy - 27.7 1014.8 0.0
14/09:00am E 17 22 - - - - 10 Mostly clear - 27.6 1014.9 0.0
14/08:30am E 15 19 - - - - 10 Partly cloudy - 26.9 1014.6 0.0
14/08:00am ESE 14 19 - - - - 10 - - 26.2 1014.4 0.0
14/07:30am ESE 13 18 - - - - 10 Partly cloudy - 25.9 1014.0 0.0
14/07:00am E 12 17 - - - - 10 Partly cloudy - 25.3 1013.5 0.0
14/06:30am ESE 11 15 - - - - 10 Partly cloudy - 24.9 1013.1 0.0
14/06:00am ESE 12 15 - - - - 10 Partly cloudy - 24.7 1012.9 0.0
14/05:30am ESE 13 16 - - - - 10 Partly cloudy - 24.8 1012.7 0.0
14/05:00am ESE 13 17 - - - - 10 Partly cloudy - 24.8 1012.2 0.0
14/04:30am ESE 11 15 - - - - 10 Partly cloudy - 24.8 1012.1 0.0
14/04:00am ESE 11 16 - - - - 10 Partly cloudy - 24.8 1011.8 0.0
14/03:30am ESE 13 18 - - - - 10 Partly cloudy - 24.8 1011.8 0.0
14/03:00am ESE 13 19 - - - - 10 Partly cloudy - 25.0 1011.8 0.0
14/02:30am E 13 19 - - - - 10 Partly cloudy - 24.9 1012.0 0.0
14/02:00am ESE 13 17 - - - - 10 Partly cloudy - 25.1 1012.3 0.0
14/01:30am ESE 14 18 - - - - 10 Partly cloudy - 25.1 1012.6 0.0
14/01:00am ESE 12 17 - - - - 10 Partly cloudy - 25.2 1013.0 0.0
14/12:30am ESE 14 18 - - - - 10 Partly cloudy - 25.2 1013.3 0.0
14/12:00am ESE 12 16 - - - - 10 - - 25.3 1013.4 0.0
 
Date/Time
EST
Wind Sea
Height
m
Swell Vis
km
Cloud Weather Temp
°C
Press
hPa
Rain since
9am
mm
Dir  Spd
kts
Gust
kts
Height
m
Period
s
Dir
13/11:30pm E 14 18 - - - - 10 Partly cloudy - 25.3 1013.7 0.0
13/11:00pm E 13 17 - - - - 10 Partly cloudy - 25.3 1013.9 0.0
13/10:30pm E 13 19 - - - - 10 Cloudy - 25.5 1013.9 0.0
13/10:00pm ESE 15 20 - - - - 10 Partly cloudy - 25.4 1013.7 0.0
13/09:30pm ESE 14 19 - - - - 10 Partly cloudy - 25.4 1013.6 0.0
13/09:00pm ESE 14 19 - - - - 10 Mostly clear - 25.3 1013.2 0.0
13/08:30pm E 13 19 - - - - 10 Partly cloudy - 25.5 1013.1 0.0
13/08:00pm ESE 14 18 - - - - 10 - - 25.4 1012.5 0.0
13/07:30pm ESE 13 19 - - - - 10 Partly cloudy - 25.4 1012.1 0.0
13/07:00pm ESE 14 19 - - - - 10 Partly cloudy - 25.5 1011.6 0.0
13/06:30pm E 13 19 - - - - 10 Partly cloudy - 25.7 1011.2 0.0
13/06:00pm E 14 18 - - - - 10 Mostly clear - 26.1 1010.9 0.0
13/05:30pm E 13 17 - - - - 10 Partly cloudy - 26.7 1010.7 0.0
13/05:00pm E 15 18 - - - - 10 - - 27.2 1010.5 0.0
13/04:30pm E 12 17 - - - - 10 - - 27.5 1010.4 0.0
13/04:00pm E 13 17 - - - - 10 - - 28.0 1010.4 0.0
13/03:30pm ENE 12 18 - - - - 10 - - 28.6 1010.7 0.0
13/03:00pm ENE 12 17 - - - - 10 - - 28.2 1010.9 0.0
13/02:30pm ENE 12 16 - - - - 10 - - 28.1 1011.2 0.0
13/02:00pm ENE 13 16 - - - - 10 - - 28.2 1011.5 0.0
13/01:30pm ENE 12 16 - - - - 10 - - 28.3 1011.7 0.0
13/01:00pm ENE 13 17 - - - - 10 - - 28.4 1011.9 0.0
13/12:30pm ENE 12 16 - - - - 10 - - 28.0 1012.3 0.0
13/12:00pm ENE 12 16 - - - - 10 - - 28.5 1012.9 0.0
13/11:30am ENE 11 15 - - - - 10 - - 28.2 1013.4 0.0
13/11:00am ENE 11 15 - - - - 10 - - 28.0 1013.8 0.0
13/10:30am E 10 14 - - - - 10 Partly cloudy - 28.2 1014.1 0.0
13/10:00am E 10 14 - - - - 10 Partly cloudy - 28.1 1014.3 0.0

Other formats

Comma delimited format used in spreadsheet applications
http://www.bom.gov.au/fwo/IDQ60701/IDQ60701.94174.axf

JavaScript Object Notation format (JSON) in row-major order
http://www.bom.gov.au/fwo/IDQ60701/IDQ60701.94174.json

Data quality

Most of these data are generated automatically and are frequently updated. Quality checks on data are not normally performed. It is possible for incorrect values to appear. Refer to information at About Latest Weather Observations and please check the disclaimer before using these data.